sensor_id;sensor_type;location;lat;lon;timestamp;P1;durP1;ratioP1;P2;durP2;ratioP2
12296;SDS011;6211;49.124;9.152;2023-11-19T00:00:18;5.57;;;3.17;;
12296;SDS011;6211;49.124;9.152;2023-11-19T00:02:45;4.90;;;3.20;;
12296;SDS011;6211;49.124;9.152;2023-11-19T00:05:14;4.00;;;3.10;;
12296;SDS011;6211;49.124;9.152;2023-11-19T00:07:42;5.75;;;3.67;;
12296;SDS011;6211;49.124;9.152;2023-11-19T00:10:09;4.22;;;3.65;;
12296;SDS011;6211;49.124;9.152;2023-11-19T00:12:37;5.43;;;3.72;;
12296;SDS011;6211;49.124;9.152;2023-11-19T00:15:05;4.55;;;3.30;;
12296;SDS011;6211;49.124;9.152;2023-11-19T00:17:36;5.82;;;3.55;;
12296;SDS011;6211;49.124;9.152;2023-11-19T00:20:04;6.28;;;3.65;;
12296;SDS011;6211;49.124;9.152;2023-11-19T00:22:33;4.25;;;3.85;;
12296;SDS011;6211;49.124;9.152;2023-11-19T00:25:00;5.15;;;3.38;;
12296;SDS011;6211;49.124;9.152;2023-11-19T00:27:28;5.05;;;3.47;;
12296;SDS011;6211;49.124;9.152;2023-11-19T00:29:56;5.60;;;3.90;;
12296;SDS011;6211;49.124;9.152;2023-11-19T00:32:23;6.55;;;3.72;;
12296;SDS011;6211;49.124;9.152;2023-11-19T00:34:50;4.25;;;3.35;;
12296;SDS011;6211;49.124;9.152;2023-11-19T00:37:17;3.05;;;2.75;;
12296;SDS011;6211;49.124;9.152;2023-11-19T00:39:46;3.20;;;2.95;;
12296;SDS011;6211;49.124;9.152;2023-11-19T00:42:13;4.90;;;3.83;;
12296;SDS011;6211;49.124;9.152;2023-11-19T00:44:40;6.75;;;3.13;;
12296;SDS011;6211;49.124;9.152;2023-11-19T00:47:07;3.10;;;2.75;;
12296;SDS011;6211;49.124;9.152;2023-11-19T00:49:37;4.63;;;3.15;;
12296;SDS011;6211;49.124;9.152;2023-11-19T00:52:05;3.15;;;2.85;;
12296;SDS011;6211;49.124;9.152;2023-11-19T00:54:32;7.00;;;3.63;;
12296;SDS011;6211;49.124;9.152;2023-11-19T00:57:00;4.93;;;3.70;;
12296;SDS011;6211;49.124;9.152;2023-11-19T00:59:28;4.30;;;3.10;;
12296;SDS011;6211;49.124;9.152;2023-11-19T01:01:55;4.90;;;3.72;;
12296;SDS011;6211;49.124;9.152;2023-11-19T01:04:22;4.05;;;3.65;;
12296;SDS011;6211;49.124;9.152;2023-11-19T01:06:49;4.93;;;2.97;;
12296;SDS011;6211;49.124;9.152;2023-11-19T01:09:17;3.67;;;2.97;;
12296;SDS011;6211;49.124;9.152;2023-11-19T01:11:44;3.92;;;3.40;;
12296;SDS011;6211;49.124;9.152;2023-11-19T01:14:12;4.07;;;3.70;;
12296;SDS011;6211;49.124;9.152;2023-11-19T01:16:39;5.63;;;3.75;;
12296;SDS011;6211;49.124;9.152;2023-11-19T01:19:07;3.53;;;3.15;;
12296;SDS011;6211;49.124;9.152;2023-11-19T01:21:35;3.40;;;3.00;;
12296;SDS011;6211;49.124;9.152;2023-11-19T01:24:03;4.75;;;3.15;;
12296;SDS011;6211;49.124;9.152;2023-11-19T01:26:34;4.97;;;3.67;;
12296;SDS011;6211;49.124;9.152;2023-11-19T01:29:01;5.38;;;3.60;;
12296;SDS011;6211;49.124;9.152;2023-11-19T01:31:31;6.15;;;3.22;;
12296;SDS011;6211;49.124;9.152;2023-11-19T01:33:59;3.92;;;3.35;;
12296;SDS011;6211;49.124;9.152;2023-11-19T01:36:26;4.93;;;3.80;;
12296;SDS011;6211;49.124;9.152;2023-11-19T01:38:53;4.90;;;4.35;;
12296;SDS011;6211;49.124;9.152;2023-11-19T01:41:20;6.20;;;4.47;;
12296;SDS011;6211;49.124;9.152;2023-11-19T01:43:47;8.98;;;4.07;;
12296;SDS011;6211;49.124;9.152;2023-11-19T01:46:14;5.75;;;4.63;;
12296;SDS011;6211;49.124;9.152;2023-11-19T01:48:44;6.55;;;4.22;;
12296;SDS011;6211;49.124;9.152;2023-11-19T01:51:11;4.85;;;4.05;;
12296;SDS011;6211;49.124;9.152;2023-11-19T01:53:41;5.90;;;4.40;;
12296;SDS011;6211;49.124;9.152;2023-11-19T01:56:09;5.88;;;4.40;;
12296;SDS011;6211;49.124;9.152;2023-11-19T01:58:38;5.13;;;3.90;;
12296;SDS011;6211;49.124;9.152;2023-11-19T02:01:06;7.05;;;4.00;;
12296;SDS011;6211;49.124;9.152;2023-11-19T02:03:33;5.35;;;3.63;;
12296;SDS011;6211;49.124;9.152;2023-11-19T02:06:02;6.07;;;3.58;;
12296;SDS011;6211;49.124;9.152;2023-11-19T02:08:29;7.07;;;4.82;;
12296;SDS011;6211;49.124;9.152;2023-11-19T02:10:57;6.25;;;4.50;;
12296;SDS011;6211;49.124;9.152;2023-11-19T02:13:25;6.68;;;5.03;;
12296;SDS011;6211;49.124;9.152;2023-11-19T02:15:53;5.25;;;4.75;;
12296;SDS011;6211;49.124;9.152;2023-11-19T02:18:21;7.13;;;4.97;;
12296;SDS011;6211;49.124;9.152;2023-11-19T02:20:49;5.38;;;4.30;;
12296;SDS011;6211;49.124;9.152;2023-11-19T02:23:18;4.95;;;4.28;;
12296;SDS011;6211;49.124;9.152;2023-11-19T02:25:47;6.85;;;5.00;;
12296;SDS011;6211;49.124;9.152;2023-11-19T02:28:16;6.38;;;4.68;;
12296;SDS011;6211;49.124;9.152;2023-11-19T02:30:43;5.05;;;3.97;;
12296;SDS011;6211;49.124;9.152;2023-11-19T02:33:10;6.85;;;4.40;;
12296;SDS011;6211;49.124;9.152;2023-11-19T02:35:37;7.20;;;5.28;;
12296;SDS011;6211;49.124;9.152;2023-11-19T02:38:05;5.28;;;4.47;;
12296;SDS011;6211;49.124;9.152;2023-11-19T02:40:33;6.75;;;4.85;;
12296;SDS011;6211;49.124;9.152;2023-11-19T02:43:00;5.90;;;4.40;;
12296;SDS011;6211;49.124;9.152;2023-11-19T02:45:31;8.07;;;4.10;;
12296;SDS011;6211;49.124;9.152;2023-11-19T02:47:58;6.88;;;4.63;;
12296;SDS011;6211;49.124;9.152;2023-11-19T02:50:27;5.53;;;4.20;;
12296;SDS011;6211;49.124;9.152;2023-11-19T02:52:55;5.55;;;4.55;;
12296;SDS011;6211;49.124;9.152;2023-11-19T02:55:22;8.07;;;5.68;;
12296;SDS011;6211;49.124;9.152;2023-11-19T02:57:49;6.90;;;4.55;;
12296;SDS011;6211;49.124;9.152;2023-11-19T03:00:18;6.05;;;4.80;;
12296;SDS011;6211;49.124;9.152;2023-11-19T03:02:50;5.00;;;3.97;;
12296;SDS011;6211;49.124;9.152;2023-11-19T03:05:24;6.38;;;4.03;;
12296;SDS011;6211;49.124;9.152;2023-11-19T03:07:51;6.70;;;4.63;;
12296;SDS011;6211;49.124;9.152;2023-11-19T03:10:18;8.55;;;5.03;;
12296;SDS011;6211;49.124;9.152;2023-11-19T03:12:46;6.82;;;4.45;;
12296;SDS011;6211;49.124;9.152;2023-11-19T03:15:13;7.10;;;4.93;;
12296;SDS011;6211;49.124;9.152;2023-11-19T03:17:40;7.10;;;4.93;;
12296;SDS011;6211;49.124;9.152;2023-11-19T03:20:09;24.17;;;5.22;;
12296;SDS011;6211;49.124;9.152;2023-11-19T03:22:40;14.55;;;6.10;;
12296;SDS011;6211;49.124;9.152;2023-11-19T03:25:07;10.40;;;5.47;;
12296;SDS011;6211;49.124;9.152;2023-11-19T03:27:35;8.85;;;5.00;;
12296;SDS011;6211;49.124;9.152;2023-11-19T03:30:04;8.93;;;5.50;;
12296;SDS011;6211;49.124;9.152;2023-11-19T03:32:31;6.05;;;4.80;;
12296;SDS011;6211;49.124;9.152;2023-11-19T03:34:59;6.10;;;4.70;;
12296;SDS011;6211;49.124;9.152;2023-11-19T03:37:29;8.10;;;4.88;;
12296;SDS011;6211;49.124;9.152;2023-11-19T03:39:57;7.22;;;5.00;;
12296;SDS011;6211;49.124;9.152;2023-11-19T03:42:25;6.60;;;4.97;;
12296;SDS011;6211;49.124;9.152;2023-11-19T03:44:52;6.72;;;5.30;;
12296;SDS011;6211;49.124;9.152;2023-11-19T03:47:19;6.68;;;5.32;;
12296;SDS011;6211;49.124;9.152;2023-11-19T03:49:47;8.13;;;5.10;;
12296;SDS011;6211;49.124;9.152;2023-11-19T03:52:15;8.48;;;4.40;;
12296;SDS011;6211;49.124;9.152;2023-11-19T03:54:44;5.43;;;3.95;;
12296;SDS011;6211;49.124;9.152;2023-11-19T03:57:11;6.82;;;5.30;;
12296;SDS011;6211;49.124;9.152;2023-11-19T03:59:39;5.28;;;3.90;;
12296;SDS011;6211;49.124;9.152;2023-11-19T04:02:06;6.40;;;3.85;;
12296;SDS011;6211;49.124;9.152;2023-11-19T04:04:33;6.53;;;4.57;;
12296;SDS011;6211;49.124;9.152;2023-11-19T04:07:00;5.60;;;4.40;;
12296;SDS011;6211;49.124;9.152;2023-11-19T04:09:28;6.60;;;4.53;;
12296;SDS011;6211;49.124;9.152;2023-11-19T04:11:57;5.97;;;4.72;;
12296;SDS011;6211;49.124;9.152;2023-11-19T04:14:24;7.85;;;5.65;;
12296;SDS011;6211;49.124;9.152;2023-11-19T04:16:51;10.77;;;6.10;;
12296;SDS011;6211;49.124;9.152;2023-11-19T04:19:18;7.45;;;4.97;;
12296;SDS011;6211;49.124;9.152;2023-11-19T04:21:45;9.25;;;4.78;;
12296;SDS011;6211;49.124;9.152;2023-11-19T04:24:12;7.75;;;5.00;;
12296;SDS011;6211;49.124;9.152;2023-11-19T04:26:40;8.68;;;5.78;;
12296;SDS011;6211;49.124;9.152;2023-11-19T04:29:10;5.68;;;4.65;;
12296;SDS011;6211;49.124;9.152;2023-11-19T04:31:38;6.18;;;4.72;;
12296;SDS011;6211;49.124;9.152;2023-11-19T04:34:06;5.40;;;3.83;;
12296;SDS011;6211;49.124;9.152;2023-11-19T04:36:33;5.57;;;4.20;;
12296;SDS011;6211;49.124;9.152;2023-11-19T04:39:00;6.53;;;3.88;;
12296;SDS011;6211;49.124;9.152;2023-11-19T04:41:28;4.85;;;3.83;;
12296;SDS011;6211;49.124;9.152;2023-11-19T04:43:55;5.90;;;4.05;;
12296;SDS011;6211;49.124;9.152;2023-11-19T04:46:23;4.82;;;3.08;;
12296;SDS011;6211;49.124;9.152;2023-11-19T04:48:50;4.95;;;3.05;;
12296;SDS011;6211;49.124;9.152;2023-11-19T04:51:17;5.22;;;3.22;;
12296;SDS011;6211;49.124;9.152;2023-11-19T04:53:45;3.33;;;3.00;;
12296;SDS011;6211;49.124;9.152;2023-11-19T04:56:12;4.45;;;3.17;;
12296;SDS011;6211;49.124;9.152;2023-11-19T04:58:40;3.38;;;2.70;;
12296;SDS011;6211;49.124;9.152;2023-11-19T05:01:13;5.53;;;3.00;;
12296;SDS011;6211;49.124;9.152;2023-11-19T05:03:43;3.60;;;3.00;;
12296;SDS011;6211;49.124;9.152;2023-11-19T05:06:10;4.18;;;3.33;;
12296;SDS011;6211;49.124;9.152;2023-11-19T05:08:37;1.50;;;1.40;;
12296;SDS011;6211;49.124;9.152;2023-11-19T05:11:04;0.82;;;0.80;;
12296;SDS011;6211;49.124;9.152;2023-11-19T05:13:32;1.10;;;1.00;;
12296;SDS011;6211;49.124;9.152;2023-11-19T05:15:59;1.45;;;1.45;;
12296;SDS011;6211;49.124;9.152;2023-11-19T05:18:26;1.65;;;1.55;;
12296;SDS011;6211;49.124;9.152;2023-11-19T05:20:54;0.82;;;0.82;;
12296;SDS011;6211;49.124;9.152;2023-11-19T05:23:21;0.57;;;0.57;;
12296;SDS011;6211;49.124;9.152;2023-11-19T05:25:49;0.80;;;0.75;;
12296;SDS011;6211;49.124;9.152;2023-11-19T05:28:16;0.60;;;0.60;;
12296;SDS011;6211;49.124;9.152;2023-11-19T05:30:43;0.60;;;0.60;;
12296;SDS011;6211;49.124;9.152;2023-11-19T05:33:10;0.50;;;0.50;;
12296;SDS011;6211;49.124;9.152;2023-11-19T05:35:37;4.95;;;4.72;;
12296;SDS011;6211;49.124;9.152;2023-11-19T05:38:05;0.50;;;0.50;;
12296;SDS011;6211;49.124;9.152;2023-11-19T05:40:34;0.80;;;0.80;;
12296;SDS011;6211;49.124;9.152;2023-11-19T05:43:03;0.80;;;0.80;;
12296;SDS011;6211;49.124;9.152;2023-11-19T05:45:31;1.15;;;0.90;;
12296;SDS011;6211;49.124;9.152;2023-11-19T05:47:58;0.52;;;0.52;;
12296;SDS011;6211;49.124;9.152;2023-11-19T05:50:25;1.55;;;1.45;;
12296;SDS011;6211;49.124;9.152;2023-11-19T05:52:53;0.85;;;0.85;;
12296;SDS011;6211;49.124;9.152;2023-11-19T05:55:21;0.57;;;0.57;;
12296;SDS011;6211;49.124;9.152;2023-11-19T05:57:49;1.00;;;1.00;;
12296;SDS011;6211;49.124;9.152;2023-11-19T06:00:17;2.45;;;2.25;;
12296;SDS011;6211;49.124;9.152;2023-11-19T06:02:44;0.80;;;0.80;;
12296;SDS011;6211;49.124;9.152;2023-11-19T06:05:11;1.25;;;1.10;;
12296;SDS011;6211;49.124;9.152;2023-11-19T06:07:38;0.70;;;0.60;;
12296;SDS011;6211;49.124;9.152;2023-11-19T06:10:06;2.67;;;2.53;;
12296;SDS011;6211;49.124;9.152;2023-11-19T06:12:36;0.95;;;0.75;;
12296;SDS011;6211;49.124;9.152;2023-11-19T06:15:06;1.50;;;0.80;;
12296;SDS011;6211;49.124;9.152;2023-11-19T06:17:33;0.52;;;0.52;;
12296;SDS011;6211;49.124;9.152;2023-11-19T06:20:00;2.42;;;0.85;;
12296;SDS011;6211;49.124;9.152;2023-11-19T06:22:29;0.50;;;0.50;;
12296;SDS011;6211;49.124;9.152;2023-11-19T06:24:56;0.70;;;0.70;;
12296;SDS011;6211;49.124;9.152;2023-11-19T06:27:25;0.70;;;0.70;;
12296;SDS011;6211;49.124;9.152;2023-11-19T06:29:53;0.70;;;0.70;;
12296;SDS011;6211;49.124;9.152;2023-11-19T06:32:20;1.83;;;1.23;;
12296;SDS011;6211;49.124;9.152;2023-11-19T06:34:47;0.70;;;0.70;;
12296;SDS011;6211;49.124;9.152;2023-11-19T06:37:15;0.93;;;0.73;;
12296;SDS011;6211;49.124;9.152;2023-11-19T06:39:42;0.93;;;0.93;;
12296;SDS011;6211;49.124;9.152;2023-11-19T06:42:09;0.50;;;0.50;;
12296;SDS011;6211;49.124;9.152;2023-11-19T06:44:36;0.73;;;0.73;;
12296;SDS011;6211;49.124;9.152;2023-11-19T06:47:05;0.50;;;0.50;;
12296;SDS011;6211;49.124;9.152;2023-11-19T06:49:32;0.50;;;0.50;;
12296;SDS011;6211;49.124;9.152;2023-11-19T06:51:59;1.08;;;0.85;;
12296;SDS011;6211;49.124;9.152;2023-11-19T06:54:26;1.20;;;1.00;;
12296;SDS011;6211;49.124;9.152;2023-11-19T06:56:53;2.08;;;1.98;;
12296;SDS011;6211;49.124;9.152;2023-11-19T06:59:21;0.60;;;0.60;;
12296;SDS011;6211;49.124;9.152;2023-11-19T07:01:48;0.50;;;0.50;;
12296;SDS011;6211;49.124;9.152;2023-11-19T07:04:17;0.70;;;0.40;;
12296;SDS011;6211;49.124;9.152;2023-11-19T07:06:44;2.65;;;1.65;;
12296;SDS011;6211;49.124;9.152;2023-11-19T07:09:13;0.47;;;0.47;;
12296;SDS011;6211;49.124;9.152;2023-11-19T07:11:40;1.27;;;1.27;;
12296;SDS011;6211;49.124;9.152;2023-11-19T07:14:09;0.98;;;0.65;;
12296;SDS011;6211;49.124;9.152;2023-11-19T07:16:36;0.40;;;0.40;;
12296;SDS011;6211;49.124;9.152;2023-11-19T07:19:03;0.52;;;0.50;;
12296;SDS011;6211;49.124;9.152;2023-11-19T07:21:32;0.55;;;0.55;;
12296;SDS011;6211;49.124;9.152;2023-11-19T07:24:00;0.30;;;0.30;;
12296;SDS011;6211;49.124;9.152;2023-11-19T07:26:27;0.50;;;0.50;;
12296;SDS011;6211;49.124;9.152;2023-11-19T07:28:54;0.32;;;0.32;;
12296;SDS011;6211;49.124;9.152;2023-11-19T07:31:21;1.02;;;0.65;;
12296;SDS011;6211;49.124;9.152;2023-11-19T07:33:48;2.10;;;1.08;;
12296;SDS011;6211;49.124;9.152;2023-11-19T07:36:16;2.65;;;2.45;;
12296;SDS011;6211;49.124;9.152;2023-11-19T07:38:45;0.57;;;0.50;;
12296;SDS011;6211;49.124;9.152;2023-11-19T07:41:12;0.40;;;0.40;;
12296;SDS011;6211;49.124;9.152;2023-11-19T07:43:39;0.50;;;0.50;;
12296;SDS011;6211;49.124;9.152;2023-11-19T07:46:10;1.85;;;0.50;;
12296;SDS011;6211;49.124;9.152;2023-11-19T07:48:38;0.60;;;0.60;;
12296;SDS011;6211;49.124;9.152;2023-11-19T07:51:07;0.30;;;0.30;;
12296;SDS011;6211;49.124;9.152;2023-11-19T07:53:34;0.38;;;0.38;;
12296;SDS011;6211;49.124;9.152;2023-11-19T07:56:05;0.60;;;0.60;;
12296;SDS011;6211;49.124;9.152;2023-11-19T07:58:32;0.90;;;0.82;;
12296;SDS011;6211;49.124;9.152;2023-11-19T08:00:59;0.38;;;0.38;;
12296;SDS011;6211;49.124;9.152;2023-11-19T08:03:26;1.13;;;0.70;;
12296;SDS011;6211;49.124;9.152;2023-11-19T08:05:54;1.85;;;0.40;;
12296;SDS011;6211;49.124;9.152;2023-11-19T08:08:22;0.40;;;0.40;;
12296;SDS011;6211;49.124;9.152;2023-11-19T08:10:49;0.65;;;0.30;;
12296;SDS011;6211;49.124;9.152;2023-11-19T08:13:19;1.83;;;1.73;;
12296;SDS011;6211;49.124;9.152;2023-11-19T08:15:47;1.90;;;0.55;;
12296;SDS011;6211;49.124;9.152;2023-11-19T08:18:14;0.40;;;0.40;;
12296;SDS011;6211;49.124;9.152;2023-11-19T08:20:41;1.85;;;0.50;;
12296;SDS011;6211;49.124;9.152;2023-11-19T08:23:09;1.20;;;0.50;;
12296;SDS011;6211;49.124;9.152;2023-11-19T08:25:37;1.30;;;0.63;;
12296;SDS011;6211;49.124;9.152;2023-11-19T08:28:04;3.47;;;3.28;;
12296;SDS011;6211;49.124;9.152;2023-11-19T08:30:33;0.50;;;0.50;;
12296;SDS011;6211;49.124;9.152;2023-11-19T08:33:00;1.10;;;1.10;;
12296;SDS011;6211;49.124;9.152;2023-11-19T08:35:28;0.60;;;0.60;;
12296;SDS011;6211;49.124;9.152;2023-11-19T08:37:55;1.88;;;1.73;;
12296;SDS011;6211;49.124;9.152;2023-11-19T08:40:22;0.60;;;0.60;;
12296;SDS011;6211;49.124;9.152;2023-11-19T08:42:50;1.65;;;1.65;;
12296;SDS011;6211;49.124;9.152;2023-11-19T08:45:17;0.50;;;0.50;;
12296;SDS011;6211;49.124;9.152;2023-11-19T08:47:45;1.67;;;0.60;;
12296;SDS011;6211;49.124;9.152;2023-11-19T08:50:12;2.33;;;1.85;;
12296;SDS011;6211;49.124;9.152;2023-11-19T08:52:40;3.13;;;2.88;;
12296;SDS011;6211;49.124;9.152;2023-11-19T08:55:07;1.27;;;1.17;;
12296;SDS011;6211;49.124;9.152;2023-11-19T08:57:35;0.75;;;0.75;;
12296;SDS011;6211;49.124;9.152;2023-11-19T09:00:02;1.17;;;1.08;;
12296;SDS011;6211;49.124;9.152;2023-11-19T09:02:32;1.42;;;1.33;;
12296;SDS011;6211;49.124;9.152;2023-11-19T09:05:01;2.42;;;2.33;;
12296;SDS011;6211;49.124;9.152;2023-11-19T09:07:28;0.85;;;0.82;;
12296;SDS011;6211;49.124;9.152;2023-11-19T09:09:55;2.03;;;0.75;;
12296;SDS011;6211;49.124;9.152;2023-11-19T09:12:22;0.80;;;0.68;;
12296;SDS011;6211;49.124;9.152;2023-11-19T09:14:49;1.10;;;1.10;;
12296;SDS011;6211;49.124;9.152;2023-11-19T09:17:16;4.10;;;1.00;;
12296;SDS011;6211;49.124;9.152;2023-11-19T09:19:44;1.83;;;0.70;;
12296;SDS011;6211;49.124;9.152;2023-11-19T09:22:12;2.95;;;2.75;;
12296;SDS011;6211;49.124;9.152;2023-11-19T09:24:39;0.60;;;0.60;;
12296;SDS011;6211;49.124;9.152;2023-11-19T09:27:07;1.08;;;0.73;;
12296;SDS011;6211;49.124;9.152;2023-11-19T09:29:34;0.90;;;0.60;;
12296;SDS011;6211;49.124;9.152;2023-11-19T09:32:01;4.25;;;3.15;;
12296;SDS011;6211;49.124;9.152;2023-11-19T09:34:29;0.60;;;0.60;;
12296;SDS011;6211;49.124;9.152;2023-11-19T09:36:56;1.05;;;0.90;;
12296;SDS011;6211;49.124;9.152;2023-11-19T09:39:25;2.05;;;1.35;;
12296;SDS011;6211;49.124;9.152;2023-11-19T09:41:52;2.33;;;2.15;;
12296;SDS011;6211;49.124;9.152;2023-11-19T09:44:19;5.35;;;4.88;;
12296;SDS011;6211;49.124;9.152;2023-11-19T09:46:47;0.93;;;0.57;;
12296;SDS011;6211;49.124;9.152;2023-11-19T09:49:14;3.08;;;0.60;;
12296;SDS011;6211;49.124;9.152;2023-11-19T09:51:43;2.80;;;2.70;;
12296;SDS011;6211;49.124;9.152;2023-11-19T09:54:10;3.75;;;3.42;;
12296;SDS011;6211;49.124;9.152;2023-11-19T09:56:40;1.90;;;1.13;;
12296;SDS011;6211;49.124;9.152;2023-11-19T09:59:08;0.95;;;0.95;;
12296;SDS011;6211;49.124;9.152;2023-11-19T10:01:36;0.80;;;0.57;;
12296;SDS011;6211;49.124;9.152;2023-11-19T10:04:04;1.45;;;1.35;;
12296;SDS011;6211;49.124;9.152;2023-11-19T10:06:31;7.68;;;5.82;;
12296;SDS011;6211;49.124;9.152;2023-11-19T10:08:59;3.72;;;1.48;;
12296;SDS011;6211;49.124;9.152;2023-11-19T10:11:26;0.50;;;0.50;;
12296;SDS011;6211;49.124;9.152;2023-11-19T10:13:54;0.60;;;0.60;;
12296;SDS011;6211;49.124;9.152;2023-11-19T10:16:27;4.57;;;4.28;;
12296;SDS011;6211;49.124;9.152;2023-11-19T10:18:55;1.60;;;1.58;;
12296;SDS011;6211;49.124;9.152;2023-11-19T10:21:22;0.50;;;0.50;;
12296;SDS011;6211;49.124;9.152;2023-11-19T10:23:50;0.30;;;0.30;;
12296;SDS011;6211;49.124;9.152;2023-11-19T10:26:18;0.50;;;0.50;;
12296;SDS011;6211;49.124;9.152;2023-11-19T10:28:46;1.35;;;1.25;;
12296;SDS011;6211;49.124;9.152;2023-11-19T10:31:15;3.30;;;2.55;;
12296;SDS011;6211;49.124;9.152;2023-11-19T10:33:42;3.95;;;3.13;;
12296;SDS011;6211;49.124;9.152;2023-11-19T10:36:10;4.57;;;4.22;;
12296;SDS011;6211;49.124;9.152;2023-11-19T10:38:38;4.93;;;3.15;;
12296;SDS011;6211;49.124;9.152;2023-11-19T10:41:05;4.00;;;1.85;;
12296;SDS011;6211;49.124;9.152;2023-11-19T10:43:42;5.13;;;4.70;;
12296;SDS011;6211;49.124;9.152;2023-11-19T10:46:10;2.15;;;1.67;;
12296;SDS011;6211;49.124;9.152;2023-11-19T10:48:40;1.48;;;1.45;;
12296;SDS011;6211;49.124;9.152;2023-11-19T10:51:07;4.88;;;4.55;;
12296;SDS011;6211;49.124;9.152;2023-11-19T10:53:35;2.90;;;2.63;;
12296;SDS011;6211;49.124;9.152;2023-11-19T10:56:04;0.63;;;0.60;;
12296;SDS011;6211;49.124;9.152;2023-11-19T10:58:33;1.00;;;1.00;;
12296;SDS011;6211;49.124;9.152;2023-11-19T11:01:03;1.65;;;1.55;;
12296;SDS011;6211;49.124;9.152;2023-11-19T11:03:39;1.67;;;0.50;;
12296;SDS011;6211;49.124;9.152;2023-11-19T11:06:08;2.97;;;2.70;;
12296;SDS011;6211;49.124;9.152;2023-11-19T11:08:36;8.90;;;5.78;;
12296;SDS011;6211;49.124;9.152;2023-11-19T11:11:04;1.25;;;0.65;;
12296;SDS011;6211;49.124;9.152;2023-11-19T11:13:32;1.10;;;1.00;;
12296;SDS011;6211;49.124;9.152;2023-11-19T11:16:00;1.25;;;0.40;;
12296;SDS011;6211;49.124;9.152;2023-11-19T11:18:27;4.00;;;3.58;;
12296;SDS011;6211;49.124;9.152;2023-11-19T11:20:55;1.23;;;1.13;;
12296;SDS011;6211;49.124;9.152;2023-11-19T11:23:36;3.83;;;0.57;;
12296;SDS011;6211;49.124;9.152;2023-11-19T11:26:09;1.30;;;0.50;;
12296;SDS011;6211;49.124;9.152;2023-11-19T11:28:41;0.57;;;0.57;;
12296;SDS011;6211;49.124;9.152;2023-11-19T11:31:14;3.00;;;2.65;;
12296;SDS011;6211;49.124;9.152;2023-11-19T11:33:58;0.98;;;0.50;;
12296;SDS011;6211;49.124;9.152;2023-11-19T11:36:28;2.45;;;2.25;;
12296;SDS011;6211;49.124;9.152;2023-11-19T11:38:58;6.53;;;3.35;;
12296;SDS011;6211;49.124;9.152;2023-11-19T11:41:26;1.27;;;1.17;;
12296;SDS011;6211;49.124;9.152;2023-11-19T11:43:55;0.80;;;0.80;;
12296;SDS011;6211;49.124;9.152;2023-11-19T11:49:10;1.38;;;1.30;;
12296;SDS011;6211;49.124;9.152;2023-11-19T11:54:27;3.05;;;0.80;;
12296;SDS011;6211;49.124;9.152;2023-11-19T11:59:43;3.63;;;3.42;;
12296;SDS011;6211;49.124;9.152;2023-11-19T12:02:10;1.13;;;1.02;;
12296;SDS011;6211;49.124;9.152;2023-11-19T12:04:39;2.90;;;2.70;;
12296;SDS011;6211;49.124;9.152;2023-11-19T12:07:06;0.45;;;0.45;;
12296;SDS011;6211;49.124;9.152;2023-11-19T12:09:38;1.35;;;1.17;;
12296;SDS011;6211;49.124;9.152;2023-11-19T12:12:13;4.03;;;3.65;;
12296;SDS011;6211;49.124;9.152;2023-11-19T12:15:03;0.45;;;0.45;;
12296;SDS011;6211;49.124;9.152;2023-11-19T12:17:40;0.60;;;0.55;;
12296;SDS011;6211;49.124;9.152;2023-11-19T12:20:09;1.05;;;0.50;;
12296;SDS011;6211;49.124;9.152;2023-11-19T12:22:37;1.67;;;0.50;;
12296;SDS011;6211;49.124;9.152;2023-11-19T12:25:06;1.70;;;0.50;;
12296;SDS011;6211;49.124;9.152;2023-11-19T12:27:34;0.60;;;0.50;;
12296;SDS011;6211;49.124;9.152;2023-11-19T12:30:02;1.25;;;1.00;;
12296;SDS011;6211;49.124;9.152;2023-11-19T12:32:37;0.45;;;0.45;;
12296;SDS011;6211;49.124;9.152;2023-11-19T12:35:05;1.65;;;0.63;;
12296;SDS011;6211;49.124;9.152;2023-11-19T12:37:32;0.55;;;0.52;;
12296;SDS011;6211;49.124;9.152;2023-11-19T12:40:00;0.40;;;0.40;;
12296;SDS011;6211;49.124;9.152;2023-11-19T12:42:37;1.85;;;0.47;;
12296;SDS011;6211;49.124;9.152;2023-11-19T12:45:05;1.05;;;0.60;;
12296;SDS011;6211;49.124;9.152;2023-11-19T12:47:32;1.35;;;0.70;;
12296;SDS011;6211;49.124;9.152;2023-11-19T12:50:00;1.08;;;1.05;;
12296;SDS011;6211;49.124;9.152;2023-11-19T12:52:27;0.55;;;0.50;;
12296;SDS011;6211;49.124;9.152;2023-11-19T12:54:54;1.15;;;1.10;;
12296;SDS011;6211;49.124;9.152;2023-11-19T12:57:35;0.90;;;0.60;;
12296;SDS011;6211;49.124;9.152;2023-11-19T13:00:04;1.23;;;0.82;;
12296;SDS011;6211;49.124;9.152;2023-11-19T13:02:46;1.05;;;0.80;;
12296;SDS011;6211;49.124;9.152;2023-11-19T13:05:21;2.45;;;1.90;;
12296;SDS011;6211;49.124;9.152;2023-11-19T13:07:48;0.55;;;0.55;;
12296;SDS011;6211;49.124;9.152;2023-11-19T13:10:16;1.63;;;0.50;;
12296;SDS011;6211;49.124;9.152;2023-11-19T13:12:43;0.75;;;0.40;;
12296;SDS011;6211;49.124;9.152;2023-11-19T13:15:23;2.70;;;1.42;;
12296;SDS011;6211;49.124;9.152;2023-11-19T13:17:51;0.95;;;0.60;;
12296;SDS011;6211;49.124;9.152;2023-11-19T13:20:19;2.05;;;1.95;;
12296;SDS011;6211;49.124;9.152;2023-11-19T13:22:53;1.13;;;0.70;;
12296;SDS011;6211;49.124;9.152;2023-11-19T13:25:20;1.25;;;0.60;;
12296;SDS011;6211;49.124;9.152;2023-11-19T13:27:47;0.40;;;0.40;;
12296;SDS011;6211;49.124;9.152;2023-11-19T13:30:15;2.75;;;0.70;;
12296;SDS011;6211;49.124;9.152;2023-11-19T13:32:44;0.90;;;0.80;;
12296;SDS011;6211;49.124;9.152;2023-11-19T13:35:11;1.63;;;1.52;;
12296;SDS011;6211;49.124;9.152;2023-11-19T13:37:38;2.30;;;1.15;;
12296;SDS011;6211;49.124;9.152;2023-11-19T13:40:06;1.15;;;0.60;;
12296;SDS011;6211;49.124;9.152;2023-11-19T13:42:35;0.50;;;0.50;;
12296;SDS011;6211;49.124;9.152;2023-11-19T13:45:06;2.08;;;0.60;;
12296;SDS011;6211;49.124;9.152;2023-11-19T13:47:35;4.38;;;0.73;;
12296;SDS011;6211;49.124;9.152;2023-11-19T13:50:07;2.10;;;0.50;;
12296;SDS011;6211;49.124;9.152;2023-11-19T13:52:35;0.75;;;0.50;;
12296;SDS011;6211;49.124;9.152;2023-11-19T13:55:04;0.63;;;0.43;;
12296;SDS011;6211;49.124;9.152;2023-11-19T13:57:32;0.50;;;0.50;;
12296;SDS011;6211;49.124;9.152;2023-11-19T13:59:59;1.00;;;0.45;;
12296;SDS011;6211;49.124;9.152;2023-11-19T14:02:28;1.95;;;0.80;;
12296;SDS011;6211;49.124;9.152;2023-11-19T14:04:55;1.77;;;0.70;;
12296;SDS011;6211;49.124;9.152;2023-11-19T14:07:23;1.85;;;0.30;;
12296;SDS011;6211;49.124;9.152;2023-11-19T14:09:50;1.17;;;0.60;;
12296;SDS011;6211;49.124;9.152;2023-11-19T14:12:18;0.73;;;0.50;;
12296;SDS011;6211;49.124;9.152;2023-11-19T14:14:45;2.60;;;0.80;;
12296;SDS011;6211;49.124;9.152;2023-11-19T14:17:12;1.42;;;0.80;;
12296;SDS011;6211;49.124;9.152;2023-11-19T14:19:40;0.70;;;0.70;;
12296;SDS011;6211;49.124;9.152;2023-11-19T14:22:07;0.50;;;0.50;;
12296;SDS011;6211;49.124;9.152;2023-11-19T14:24:36;0.45;;;0.40;;
12296;SDS011;6211;49.124;9.152;2023-11-19T14:27:04;2.72;;;2.47;;
12296;SDS011;6211;49.124;9.152;2023-11-19T14:29:32;2.67;;;0.73;;
12296;SDS011;6211;49.124;9.152;2023-11-19T14:31:59;1.38;;;0.60;;
12296;SDS011;6211;49.124;9.152;2023-11-19T14:34:27;1.85;;;0.68;;
12296;SDS011;6211;49.124;9.152;2023-11-19T14:36:55;0.43;;;0.43;;
12296;SDS011;6211;49.124;9.152;2023-11-19T14:39:22;0.90;;;0.50;;
12296;SDS011;6211;49.124;9.152;2023-11-19T14:41:50;3.33;;;1.55;;
12296;SDS011;6211;49.124;9.152;2023-11-19T14:44:24;0.40;;;0.40;;
12296;SDS011;6211;49.124;9.152;2023-11-19T14:46:51;2.30;;;0.68;;
12296;SDS011;6211;49.124;9.152;2023-11-19T14:49:19;1.35;;;0.50;;
12296;SDS011;6211;49.124;9.152;2023-11-19T14:51:46;0.65;;;0.50;;
12296;SDS011;6211;49.124;9.152;2023-11-19T14:54:13;0.60;;;0.60;;
12296;SDS011;6211;49.124;9.152;2023-11-19T14:56:41;0.90;;;0.40;;
12296;SDS011;6211;49.124;9.152;2023-11-19T14:59:16;1.85;;;0.50;;
12296;SDS011;6211;49.124;9.152;2023-11-19T15:01:44;0.77;;;0.50;;
12296;SDS011;6211;49.124;9.152;2023-11-19T15:04:14;0.65;;;0.65;;
12296;SDS011;6211;49.124;9.152;2023-11-19T15:06:42;2.88;;;0.47;;
12296;SDS011;6211;49.124;9.152;2023-11-19T15:09:20;1.05;;;0.50;;
12296;SDS011;6211;49.124;9.152;2023-11-19T15:11:53;0.50;;;0.50;;
12296;SDS011;6211;49.124;9.152;2023-11-19T15:14:21;0.40;;;0.30;;